Time;durP1;ratioP1;P1;durP2;ratioP2;P2;SDS_P1;SDS_P2;PMS_P1;PMS_P2;Temp;Humidity;BMP_temperature;BMP_pressure;BME280_temperature;BME280_humidity;BME280_pressure;Samples;Min_cycle;Max_cycle;Signal;HPM_P1;HPM_P2
2023/10/11 00:01:42;;;;;;;9.20;5.82;;;;;;;;;;5065271;28;20040;-65
2023/10/11 00:05:37;;;;;;;11.10;5.82;;;;;;;;;;5069417;28;20609;-64
2023/10/11 00:09:17;;;;;;;9.35;5.82;;;;;;;;;;5069130;28;20044;-65
2023/10/11 00:12:58;;;;;;;10.57;6.88;;;;;;;;;;5064313;28;20036;-65
2023/10/11 00:16:39;;;;;;;11.30;6.60;;;;;;;;;;5080406;28;20159;-65
2023/10/11 00:20:29;;;;;;;8.55;6.30;;;;;;;;;;5073936;28;20048;-67
2023/10/11 00:24:01;;;;;;;14.63;6.28;;;;;;;;;;5072573;28;20053;-63
2023/10/11 00:27:42;;;;;;;12.45;6.60;;;;;;;;;;5060952;28;20044;-63
2023/10/11 00:31:22;;;;;;;12.80;5.95;;;;;;;;;;5075515;28;20067;-66
2023/10/11 00:35:03;;;;;;;11.80;6.28;;;;;;;;;;5070022;28;20048;-64
2023/10/11 00:38:43;;;;;;;10.85;5.68;;;;;;;;;;5065763;28;20048;-64
2023/10/11 00:42:23;;;;;;;8.50;6.10;;;;;;;;;;5064050;28;20044;-64
2023/10/11 00:46:05;;;;;;;10.93;5.80;;;;;;;;;;5064322;28;20151;-64
2023/10/11 00:49:45;;;;;;;11.77;6.47;;;;;;;;;;5065639;28;20041;-63
2023/10/11 00:53:34;;;;;;;10.50;6.53;;;;;;;;;;5063857;28;20040;-64
2023/10/11 00:57:09;;;;;;;10.35;6.35;;;;;;;;;;5066940;28;20133;-64
2023/10/11 01:00:49;;;;;;;11.40;6.45;;;;;;;;;;5063817;28;20102;-64
2023/10/11 01:04:35;;;;;;;9.23;6.53;;;;;;;;;;5067368;28;21932;-64
2023/10/11 01:08:10;;;;;;;8.68;6.15;;;;;;;;;;5062798;28;20396;-64
2023/10/11 01:11:51;;;;;;;10.32;7.15;;;;;;;;;;5060129;28;20036;-65
2023/10/11 01:15:33;;;;;;;10.77;6.35;;;;;;;;;;5064339;28;20040;-64
2023/10/11 01:19:13;;;;;;;9.77;6.28;;;;;;;;;;5066941;28;20052;-64
2023/10/11 01:22:52;;;;;;;9.07;6.25;;;;;;;;;;5069019;28;20045;-64
2023/10/11 01:26:32;;;;;;;12.38;6.25;;;;;;;;;;5066021;28;20056;-65
2023/10/11 01:30:13;;;;;;;12.05;6.57;;;;;;;;;;5062558;28;20051;-65
2023/10/11 01:33:58;;;;;;;10.15;6.80;;;;;;;;;;5065829;28;20064;-64
2023/10/11 01:37:41;;;;;;;9.63;6.53;;;;;;;;;;5072399;28;20048;-64
2023/10/11 01:41:21;;;;;;;12.88;6.70;;;;;;;;;;5065481;28;20125;-63
2023/10/11 01:45:04;;;;;;;10.65;6.70;;;;;;;;;;5068631;28;20044;-66
2023/10/11 01:48:42;;;;;;;9.73;6.63;;;;;;;;;;5067631;28;20047;-64
2023/10/11 01:52:25;;;;;;;11.07;6.53;;;;;;;;;;5066501;28;20132;-66
2023/10/11 01:56:04;;;;;;;10.55;6.60;;;;;;;;;;5070235;28;20094;-65
2023/10/11 01:59:44;;;;;;;10.98;6.80;;;;;;;;;;5066105;28;20091;-63
2023/10/11 02:03:24;;;;;;;9.88;6.57;;;;;;;;;;5067723;28;20040;-66
2023/10/11 02:07:05;;;;;;;9.38;6.57;;;;;;;;;;5062596;28;20036;-65
2023/10/11 02:10:45;;;;;;;12.90;6.78;;;;;;;;;;5058360;28;20045;-62
2023/10/11 02:14:28;;;;;;;10.75;7.03;;;;;;;;;;5062381;28;20113;-64
2023/10/11 02:18:10;;;;;;;13.30;6.80;;;;;;;;;;5064849;28;20058;-64
2023/10/11 02:21:49;;;;;;;8.35;6.28;;;;;;;;;;5068041;28;20052;-63
2023/10/11 02:25:29;;;;;;;12.25;6.95;;;;;;;;;;5070658;28;20049;-64
2023/10/11 02:29:20;;;;;;;9.23;6.38;;;;;;;;;;5057824;28;20091;-64
2023/10/11 02:32:58;;;;;;;9.90;6.78;;;;;;;;;;5063347;28;20048;-62
2023/10/11 02:36:42;;;;;;;9.98;6.88;;;;;;;;;;5065710;28;20063;-62
2023/10/11 02:40:23;;;;;;;15.52;7.25;;;;;;;;;;5070713;28;20056;-62
2023/10/11 02:44:01;;;;;;;12.07;7.13;;;;;;;;;;5061976;28;20051;-63
2023/10/11 02:47:40;;;;;;;11.55;6.97;;;;;;;;;;5066861;28;20056;-64
2023/10/11 02:51:24;;;;;;;9.30;6.28;;;;;;;;;;5057185;28;20131;-63
2023/10/11 02:55:11;;;;;;;11.70;6.70;;;;;;;;;;5057983;28;20158;-64
2023/10/11 02:58:42;;;;;;;12.00;6.85;;;;;;;;;;5060893;28;20080;-65
2023/10/11 03:02:29;;;;;;;10.15;7.05;;;;;;;;;;5059202;28;20040;-63
2023/10/11 03:06:03;;;;;;;13.18;7.13;;;;;;;;;;5067311;28;20045;-63
2023/10/11 03:09:44;;;;;;;10.65;7.38;;;;;;;;;;5062880;28;20090;-63
2023/10/11 03:13:25;;;;;;;11.40;7.53;;;;;;;;;;5060695;28;20041;-63
2023/10/11 03:17:06;;;;;;;9.27;7.15;;;;;;;;;;5067305;28;20492;-64
2023/10/11 03:20:47;;;;;;;9.38;7.15;;;;;;;;;;5065880;28;20076;-63
2023/10/11 03:24:33;;;;;;;13.90;7.85;;;;;;;;;;5059323;28;20115;-65
2023/10/11 03:28:08;;;;;;;11.73;7.03;;;;;;;;;;5073453;28;20453;-63
2023/10/11 03:31:48;;;;;;;9.38;7.40;;;;;;;;;;5070373;28;20123;-63
2023/10/11 03:35:33;;;;;;;9.38;7.50;;;;;;;;;;5064670;28;20399;-64
2023/10/11 03:39:09;;;;;;;11.55;7.35;;;;;;;;;;5060920;28;20144;-63
2023/10/11 03:42:59;;;;;;;13.05;7.20;;;;;;;;;;5056260;28;20052;-64
2023/10/11 03:46:34;;;;;;;10.40;7.00;;;;;;;;;;5066537;28;20396;-64
2023/10/11 03:50:12;;;;;;;10.90;6.97;;;;;;;;;;5061036;28;20062;-64
2023/10/11 03:53:53;;;;;;;11.57;7.63;;;;;;;;;;5069539;28;20048;-63
2023/10/11 03:57:41;;;;;;;9.70;6.53;;;;;;;;;;5059167;28;20423;-63
2023/10/11 04:04:42;;;;;;;12.20;6.68;;;;;;;;;;5059557;28;20044;-64
2023/10/11 04:08:24;;;;;;;11.85;6.95;;;;;;;;;;5063191;28;20488;-63
2023/10/11 04:12:04;;;;;;;13.57;7.13;;;;;;;;;;5064913;28;20072;-65
2023/10/11 04:15:44;;;;;;;10.57;6.88;;;;;;;;;;5059237;28;20135;-64
2023/10/11 04:19:23;;;;;;;12.90;6.53;;;;;;;;;;5060507;28;20045;-62
2023/10/11 04:23:10;;;;;;;16.40;6.63;;;;;;;;;;5065581;28;20044;-64
2023/10/11 04:27:34;;;;;;;12.43;6.18;;;;;;;;;;5066776;28;20066;-64
2023/10/11 04:30:43;;;;;;;11.00;6.82;;;;;;;;;;5059595;28;20048;-64
2023/10/11 04:34:23;;;;;;;12.90;6.30;;;;;;;;;;5067277;28;20053;-64
2023/10/11 04:38:03;;;;;;;12.38;6.50;;;;;;;;;;5060834;28;20045;-66
2023/10/11 04:41:50;;;;;;;10.73;6.25;;;;;;;;;;5052976;28;20052;-65
2023/10/11 04:45:30;;;;;;;10.48;6.80;;;;;;;;;;5065658;28;20048;-66
2023/10/11 04:49:18;;;;;;;13.68;6.85;;;;;;;;;;5061560;28;20348;-64
2023/10/11 04:52:58;;;;;;;10.43;6.30;;;;;;;;;;5070354;28;20056;-64
2023/10/11 05:00:08;;;;;;;8.30;6.30;;;;;;;;;;5063467;28;20131;-65
2023/10/11 05:03:46;;;;;;;12.65;7.05;;;;;;;;;;5067353;28;20734;-63
2023/10/11 05:07:28;;;;;;;12.43;7.07;;;;;;;;;;5067461;28;20070;-65
2023/10/11 05:11:15;;;;;;;9.93;6.18;;;;;;;;;;5065113;28;20048;-65
2023/10/11 05:18:08;;;;;;;13.57;6.20;;;;;;;;;;5062954;28;20496;-64
2023/10/11 05:21:53;;;;;;;12.23;6.28;;;;;;;;;;5064211;28;20037;-63
2023/10/11 05:29:09;;;;;;;11.18;6.90;;;;;;;;;;5073661;28;20078;-64
2023/10/11 05:32:50;;;;;;;11.57;6.68;;;;;;;;;;5071514;28;20135;-64
2023/10/11 05:51:09;;;;;;;11.50;6.60;;;;;;;;;;5067350;28;20062;-66
2023/10/11 05:54:50;;;;;;;11.43;6.68;;;;;;;;;;5071024;28;20090;-66
2023/10/11 05:58:34;;;;;;;13.20;6.40;;;;;;;;;;5068122;28;20051;-65
2023/10/11 06:02:13;;;;;;;14.23;6.18;;;;;;;;;;5063438;28;20650;-64
2023/10/11 06:05:54;;;;;;;20.25;6.88;;;;;;;;;;5056313;28;20045;-65
2023/10/11 06:09:43;;;;;;;12.23;6.70;;;;;;;;;;5057902;28;20040;-65
2023/10/11 06:13:17;;;;;;;12.52;6.55;;;;;;;;;;5065792;28;20111;-64
2023/10/11 06:16:57;;;;;;;13.43;6.60;;;;;;;;;;5060520;28;20046;-65
2023/10/11 06:20:39;;;;;;;10.50;6.13;;;;;;;;;;5069570;28;20040;-64
2023/10/11 06:24:22;;;;;;;14.85;7.05;;;;;;;;;;5060111;28;20060;-66
2023/10/11 06:31:20;;;;;;;19.23;12.73;;;;;;;;;;5061161;28;20176;-66
2023/10/11 06:35:04;;;;;;;15.50;7.40;;;;;;;;;;5065233;28;20161;-65
2023/10/11 06:38:44;;;;;;;9.45;6.30;;;;;;;;;;5063234;28;20450;-68
2023/10/11 06:42:31;;;;;;;14.40;6.85;;;;;;;;;;5064793;28;20045;-72
2023/10/11 06:46:07;;;;;;;15.05;6.40;;;;;;;;;;5067156;28;20059;-69
2023/10/11 06:49:48;;;;;;;12.77;6.70;;;;;;;;;;5071998;28;20060;-62
2023/10/11 06:52:49;;;;;;;14.63;6.45;;;;;;;;;;5069492;28;20044;-63
2023/10/11 06:55:22;;;;;;;20.58;6.70;;;;;;;;;;5066731;28;20128;-64
2023/10/11 06:57:54;;;;;;;14.38;6.95;;;;;;;;;;5059600;28;20049;-66
2023/10/11 07:00:23;;;;;;;12.40;6.35;;;;;;;;;;5063522;28;20037;-64
2023/10/11 07:03:09;;;;;;;14.57;7.00;;;;;;;;;;5062137;28;20051;-65
2023/10/11 07:05:46;;;;;;;17.85;6.38;;;;;;;;;;5060364;28;20504;-64
2023/10/11 07:08:53;;;;;;;19.27;7.80;;;;;;;;;;5061775;28;20048;-63
2023/10/11 07:12:41;;;;;;;12.45;7.38;;;;;;;;;;5050939;28;20048;-64
2023/10/11 07:16:21;;;;;;;20.42;8.23;;;;;;;;;;5065724;28;20052;-64
2023/10/11 07:20:03;;;;;;;12.07;6.93;;;;;;;;;;5064028;28;20452;-62
2023/10/11 07:27:26;;;;;;;17.73;7.55;;;;;;;;;;5069479;28;20108;-63
2023/10/11 07:30:56;;;;;;;15.60;8.07;;;;;;;;;;5071985;28;20415;-65
2023/10/11 07:34:35;;;;;;;22.95;8.00;;;;;;;;;;5081146;28;20145;-61
2023/10/11 07:38:16;;;;;;;14.15;7.93;;;;;;;;;;5070259;28;20499;-63
2023/10/11 07:42:09;;;;;;;18.70;8.07;;;;;;;;;;5067406;28;20110;-63
2023/10/11 07:45:49;;;;;;;23.77;9.88;;;;;;;;;;5067716;28;20049;-63
2023/10/11 07:49:37;;;;;;;17.17;8.63;;;;;;;;;;5075575;28;20051;-66
2023/10/11 07:53:13;;;;;;;23.05;8.18;;;;;;;;;;5063047;28;20044;-64
2023/10/11 07:56:55;;;;;;;18.58;7.32;;;;;;;;;;5070151;28;20098;-63
2023/10/11 08:00:31;;;;;;;18.45;7.93;;;;;;;;;;5060138;28;20121;-63
2023/10/11 08:04:18;;;;;;;19.13;8.38;;;;;;;;;;5064011;28;20063;-63
2023/10/11 08:07:55;;;;;;;18.52;7.88;;;;;;;;;;5061131;28;20101;-66
2023/10/11 08:11:44;;;;;;;25.08;8.00;;;;;;;;;;5066245;28;20067;-63
2023/10/11 08:15:21;;;;;;;17.05;7.45;;;;;;;;;;5067855;28;20041;-63
2023/10/11 08:18:59;;;;;;;19.45;7.82;;;;;;;;;;5066091;28;20036;-66
2023/10/11 08:22:40;;;;;;;17.15;7.55;;;;;;;;;;5065962;28;20044;-64
2023/10/11 08:26:21;;;;;;;15.52;8.13;;;;;;;;;;5072519;28;20094;-63
2023/10/11 08:30:09;;;;;;;16.65;7.18;;;;;;;;;;5069273;28;20040;-64
2023/10/11 08:33:46;;;;;;;22.63;8.45;;;;;;;;;;5064694;28;20083;-64
2023/10/11 08:37:28;;;;;;;16.25;7.30;;;;;;;;;;5066302;28;20040;-64
2023/10/11 08:41:07;;;;;;;18.95;7.75;;;;;;;;;;5064172;28;20041;-66
2023/10/11 08:44:49;;;;;;;22.35;8.55;;;;;;;;;;5069167;28;20139;-65
2023/10/11 08:48:28;;;;;;;17.75;8.23;;;;;;;;;;5065405;28;20484;-65
2023/10/11 08:52:10;;;;;;;20.98;8.55;;;;;;;;;;5067094;28;20123;-65
2023/10/11 08:55:54;;;;;;;14.50;8.07;;;;;;;;;;5055104;28;20045;-65
2023/10/11 08:59:39;;;;;;;15.00;8.80;;;;;;;;;;5067960;28;20446;-63
2023/10/11 09:03:17;;;;;;;21.60;8.85;;;;;;;;;;5063589;28;20376;-64
2023/10/11 09:07:00;;;;;;;15.35;8.10;;;;;;;;;;5065827;28;20121;-64
2023/10/11 09:10:32;;;;;;;;;;;;;;;;;;5062419;28;20259;-68
2023/10/11 09:14:06;;;;;;;25.75;8.23;;;;;;;;;;5061198;28;19943;-64
2023/10/11 09:17:50;;;;;;;17.85;7.93;;;;;;;;;;5064235;28;20399;-63
2023/10/11 09:21:36;;;;;;;24.30;9.13;;;;;;;;;;5065974;28;20048;-64
2023/10/11 09:25:33;;;;;;;16.90;7.10;;;;;;;;;;5066968;28;20095;-64
2023/10/11 09:29:05;;;;;;;16.33;7.38;;;;;;;;;;5065236;28;20044;-65
2023/10/11 09:32:52;;;;;;;13.02;7.70;;;;;;;;;;5068376;28;20569;-64
2023/10/11 09:36:32;;;;;;;19.38;6.75;;;;;;;;;;5061507;28;20109;-65
2023/10/11 09:40:16;;;;;;;8.25;4.78;;;;;;;;;;5063633;28;20447;-64
2023/10/11 09:43:55;;;;;;;7.55;4.00;;;;;;;;;;5064220;28;20052;-66
2023/10/11 09:47:34;;;;;;;6.10;4.00;;;;;;;;;;5064696;28;20055;-62
2023/10/11 09:51:14;;;;;;;13.25;4.70;;;;;;;;;;5065350;28;20036;-66
2023/10/11 09:54:53;;;;;;;8.00;4.45;;;;;;;;;;5062847;28;20044;-67
2023/10/11 09:58:37;;;;;;;13.40;5.70;;;;;;;;;;5067294;28;20490;-64
2023/10/11 10:02:24;;;;;;;16.25;5.43;;;;;;;;;;5061349;28;20060;-63
2023/10/11 10:06:03;;;;;;;12.60;5.05;;;;;;;;;;5067301;28;20053;-65
2023/10/11 10:09:04;;;;;;;10.25;5.57;;;;;;;;;;5076393;28;20083;-65
2023/10/11 10:12:10;;;;;;;9.30;4.30;;;;;;;;;;5066404;28;20083;-65
2023/10/11 10:15:56;;;;;;;7.47;4.35;;;;;;;;;;5074787;28;20084;-64
2023/10/11 10:19:45;;;;;;;9.63;5.30;;;;;;;;;;5065701;28;20139;-64
2023/10/11 10:23:15;;;;;;;6.63;4.38;;;;;;;;;;5070317;28;20075;-65
2023/10/11 10:26:19;;;;;;;9.45;4.85;;;;;;;;;;5063369;28;20048;-64
2023/10/11 10:30:16;;;;;;;9.55;4.60;;;;;;;;;;5062249;28;20392;-63
2023/10/11 10:34:04;;;;;;;8.65;4.43;;;;;;;;;;5060571;28;20547;-65
2023/10/11 10:37:39;;;;;;;8.82;4.25;;;;;;;;;;5067529;28;20041;-65
2023/10/11 10:41:39;;;;;;;15.75;4.75;;;;;;;;;;5059630;28;20045;-63
2023/10/11 10:45:28;;;;;;;13.27;4.20;;;;;;;;;;5063401;28;20052;-62
2023/10/11 10:49:11;;;;;;;6.40;4.10;;;;;;;;;;5063057;28;20041;-64
2023/10/11 10:52:54;;;;;;;8.98;5.22;;;;;;;;;;5066983;28;20414;-63
2023/10/11 10:56:17;;;;;;;;;;;;;;;;;;5056922;28;20060;-63
2023/10/11 10:59:57;;;;;;;7.63;4.50;;;;;;;;;;5069260;28;19920;-64
2023/10/11 11:03:37;;;;;;;12.63;4.78;;;;;;;;;;5064182;28;20037;-63
2023/10/11 11:06:37;;;;;;;10.77;5.20;;;;;;;;;;5066303;28;20048;-64
2023/10/11 11:10:18;;;;;;;8.73;5.00;;;;;;;;;;5063925;28;20048;-63
2023/10/11 11:14:02;;;;;;;14.38;5.63;;;;;;;;;;5065197;28;20522;-65
2023/10/11 11:17:46;;;;;;;10.88;5.25;;;;;;;;;;5060189;28;20052;-64
2023/10/11 11:21:25;;;;;;;14.38;6.47;;;;;;;;;;5073145;28;20052;-64
2023/10/11 11:25:07;;;;;;;8.40;5.78;;;;;;;;;;5065234;28;20044;-65
2023/10/11 11:29:09;;;;;;;8.98;5.22;;;;;;;;;;5070635;28;20043;-64
2023/10/11 11:32:39;;;;;;;9.52;4.40;;;;;;;;;;5062584;28;20048;-63
2023/10/11 11:36:30;;;;;;;8.57;4.30;;;;;;;;;;5066180;28;20056;-65
2023/10/11 11:40:19;;;;;;;7.60;3.83;;;;;;;;;;5062714;28;20080;-64
2023/10/11 11:43:58;;;;;;;11.25;4.63;;;;;;;;;;5064767;28;20044;-64
2023/10/11 11:47:05;;;;;;;6.85;4.20;;;;;;;;;;5056761;28;20551;-65
2023/10/11 11:49:35;;;;;;;7.38;4.28;;;;;;;;;;5065195;28;20555;-65
2023/10/11 11:52:00;;;;;;;6.32;3.80;;;;;;;;;;5065160;28;20132;-63
2023/10/11 11:54:29;;;;;;;5.55;4.00;;;;;;;;;;5065692;28;20059;-65
2023/10/11 11:56:56;;;;;;;6.15;3.85;;;;;;;;;;5060802;28;20063;-63
2023/10/11 11:59:29;;;;;;;6.50;4.03;;;;;;;;;;5079048;28;20049;-67
2023/10/11 12:01:59;;;;;;;4.95;3.72;;;;;;;;;;5071913;28;20075;-64
2023/10/11 12:04:29;;;;;;;6.45;3.70;;;;;;;;;;5070692;28;20443;-64
2023/10/11 12:07:01;;;;;;;5.88;3.95;;;;;;;;;;5069741;28;20059;-68
2023/10/11 12:09:34;;;;;;;15.18;4.78;;;;;;;;;;5077027;28;20048;-64
2023/10/11 12:12:04;;;;;;;9.88;4.15;;;;;;;;;;5065349;28;20044;-64
2023/10/11 12:14:37;;;;;;;7.10;4.30;;;;;;;;;;5065504;28;20136;-64
2023/10/11 12:17:13;;;;;;;9.20;5.07;;;;;;;;;;5069418;28;20500;-64
2023/10/11 12:19:42;;;;;;;11.48;5.32;;;;;;;;;;5065817;28;20383;-66
2023/10/11 12:22:10;;;;;;;10.05;5.95;;;;;;;;;;5069913;28;20121;-64
2023/10/11 12:24:44;;;;;;;10.63;6.25;;;;;;;;;;5069756;28;20056;-67
2023/10/11 12:27:12;;;;;;;11.68;6.68;;;;;;;;;;5069823;28;20058;-65
2023/10/11 12:29:39;;;;;;;10.88;6.15;;;;;;;;;;5070622;28;20048;-63
2023/10/11 12:32:07;;;;;;;10.85;6.13;;;;;;;;;;5078429;28;20055;-65
2023/10/11 12:34:33;;;;;;;10.90;6.32;;;;;;;;;;5068394;28;20056;-64
2023/10/11 12:37:02;;;;;;;13.70;6.63;;;;;;;;;;5069526;28;20058;-63
2023/10/11 12:39:33;;;;;;;12.02;6.25;;;;;;;;;;5072829;28;20049;-67
2023/10/11 12:42:01;;;;;;;10.85;7.57;;;;;;;;;;5071370;28;20478;-65
2023/10/11 12:44:30;;;;;;;16.27;9.27;;;;;;;;;;5072061;28;20040;-64
2023/10/11 12:47:00;;;;;;;14.80;8.52;;;;;;;;;;5069592;28;20127;-66
2023/10/11 12:49:27;;;;;;;15.35;8.82;;;;;;;;;;5063700;28;20044;-66
2023/10/11 12:51:54;;;;;;;13.02;7.20;;;;;;;;;;5077284;28;20050;-63
2023/10/11 12:54:20;;;;;;;8.95;5.55;;;;;;;;;;5068930;28;20048;-63
2023/10/11 12:56:47;;;;;;;15.02;5.50;;;;;;;;;;5074486;28;20048;-62
2023/10/11 12:59:13;;;;;;;11.02;5.57;;;;;;;;;;5069289;28;20051;-65
2023/10/11 13:02:33;;;;;;;7.60;4.60;;;;;;;;;;5073985;28;20044;-65
2023/10/11 13:06:09;;;;;;;9.45;4.57;;;;;;;;;;5072143;28;20131;-65
2023/10/11 13:09:45;;;;;;;6.22;3.90;;;;;;;;;;5063023;28;20128;-66
2023/10/11 13:13:27;;;;;;;7.85;3.97;;;;;;;;;;5069451;28;20051;-65
2023/10/11 13:17:15;;;;;;;9.65;3.72;;;;;;;;;;5076357;28;20090;-64
2023/10/11 13:20:48;;;;;;;6.50;3.90;;;;;;;;;;5066632;28;20507;-68
2023/10/11 13:24:28;;;;;;;6.50;4.32;;;;;;;;;;5064508;28;20487;-66
2023/10/11 13:28:09;;;;;;;7.50;3.80;;;;;;;;;;5068967;28;20403;-66
2023/10/11 13:31:51;;;;;;;5.70;3.67;;;;;;;;;;5065983;28;20523;-64
2023/10/11 13:35:30;;;;;;;9.35;3.53;;;;;;;;;;5061609;28;20060;-68
2023/10/11 13:39:26;;;;;;;4.50;3.20;;;;;;;;;;5065600;28;20060;-65
2023/10/11 13:43:08;;;;;;;4.03;3.05;;;;;;;;;;5072154;28;20453;-67
2023/10/11 13:46:51;;;;;;;6.22;3.25;;;;;;;;;;5064559;28;20059;-65
2023/10/11 13:50:35;;;;;;;4.35;3.00;;;;;;;;;;5064954;28;20101;-65
2023/10/11 13:54:18;;;;;;;6.88;3.72;;;;;;;;;;5061427;28;20501;-65
2023/10/11 13:57:52;;;;;;;6.03;3.78;;;;;;;;;;5079360;28;20196;-64
2023/10/11 14:01:58;;;;;;;6.50;3.72;;;;;;;;;;5062493;28;20089;-63
2023/10/11 14:05:18;;;;;;;9.20;3.50;;;;;;;;;;5066503;28;20056;-65
2023/10/11 14:09:14;;;;;;;8.15;3.70;;;;;;;;;;5062525;28;20056;-65
2023/10/11 14:12:39;;;;;;;8.20;3.92;;;;;;;;;;5064865;28;20481;-65
2023/10/11 14:16:22;;;;;;;9.75;4.00;;;;;;;;;;5065105;28;20051;-64
2023/10/11 14:20:05;;;;;;;6.65;3.42;;;;;;;;;;5061698;28;20395;-65
2023/10/11 14:23:44;;;;;;;8.35;3.50;;;;;;;;;;5068318;28;20049;-66
2023/10/11 14:27:24;;;;;;;7.85;3.63;;;;;;;;;;5062954;28;20059;-66
2023/10/11 14:31:04;;;;;;;12.48;4.55;;;;;;;;;;5064882;28;20044;-67
2023/10/11 14:34:45;;;;;;;12.05;4.85;;;;;;;;;;5062968;28;20517;-67
2023/10/11 14:38:25;;;;;;;14.18;4.40;;;;;;;;;;5049131;28;20087;-65
2023/10/11 14:42:05;;;;;;;9.50;4.40;;;;;;;;;;5058331;28;20074;-68
2023/10/11 14:45:47;;;;;;;7.72;4.13;;;;;;;;;;5066685;28;20040;-68
2023/10/11 14:49:26;;;;;;;6.47;3.40;;;;;;;;;;5060863;28;20372;-67
2023/10/11 14:53:13;;;;;;;10.02;3.80;;;;;;;;;;5056430;28;20744;-61
2023/10/11 14:56:09;;;;;;;5.38;3.38;;;;;;;;;;5058999;28;21352;-62
2023/10/11 14:58:36;;;;;;;7.95;3.55;;;;;;;;;;5049293;28;20396;-68
2023/10/11 15:01:09;;;;;;;7.22;3.50;;;;;;;;;;5065503;28;20059;-64
2023/10/11 15:04:15;;;;;;;7.32;3.70;;;;;;;;;;5063184;28;20028;-64
2023/10/11 15:07:56;;;;;;;6.90;3.50;;;;;;;;;;5065556;28;20044;-65
2023/10/11 15:11:36;;;;;;;5.75;3.25;;;;;;;;;;5060363;28;20049;-65
2023/10/11 15:15:19;;;;;;;5.22;2.97;;;;;;;;;;5066979;28;20044;-65
2023/10/11 15:18:57;;;;;;;5.85;3.45;;;;;;;;;;5056075;28;20488;-65
2023/10/11 15:22:37;;;;;;;4.82;3.40;;;;;;;;;;5061308;28;20056;-63
2023/10/11 15:26:19;;;;;;;5.50;3.25;;;;;;;;;;5064824;28;20048;-66
2023/10/11 15:29:59;;;;;;;9.68;3.58;;;;;;;;;;5068492;28;20041;-65
2023/10/11 15:33:38;;;;;;;5.93;3.15;;;;;;;;;;5066895;28;20077;-65
2023/10/11 15:37:19;;;;;;;9.98;3.70;;;;;;;;;;5058886;28;20060;-65
2023/10/11 15:40:59;;;;;;;6.07;3.67;;;;;;;;;;5062211;28;20518;-67
2023/10/11 15:44:39;;;;;;;8.40;3.95;;;;;;;;;;5066722;28;20056;-68
2023/10/11 15:48:22;;;;;;;7.43;3.83;;;;;;;;;;5069885;28;20048;-66
2023/10/11 15:52:02;;;;;;;8.30;3.80;;;;;;;;;;5063701;28;20059;-66
2023/10/11 15:55:42;;;;;;;6.32;3.75;;;;;;;;;;5060386;28;20104;-67
2023/10/11 15:59:24;;;;;;;6.45;3.67;;;;;;;;;;5063543;28;20398;-66
2023/10/11 16:03:06;;;;;;;10.90;4.13;;;;;;;;;;5065780;28;20051;-65
2023/10/11 16:06:52;;;;;;;5.93;3.72;;;;;;;;;;5061026;28;20044;-68
2023/10/11 16:10:34;;;;;;;6.78;3.63;;;;;;;;;;5058226;28;20429;-67
2023/10/11 16:14:15;;;;;;;8.85;3.90;;;;;;;;;;5068947;28;20403;-66
2023/10/11 16:17:55;;;;;;;5.22;3.45;;;;;;;;;;5075888;28;20082;-67
2023/10/11 16:21:35;;;;;;;9.73;4.30;;;;;;;;;;5069239;28;20052;-65
2023/10/11 16:25:18;;;;;;;6.93;4.05;;;;;;;;;;5066875;28;20040;-65
2023/10/11 16:28:56;;;;;;;8.48;4.38;;;;;;;;;;5067661;28;20388;-68
2023/10/11 16:32:37;;;;;;;11.05;4.43;;;;;;;;;;5061963;28;20059;-67
2023/10/11 16:36:17;;;;;;;10.90;4.10;;;;;;;;;;5075041;28;20084;-67
2023/10/11 16:39:57;;;;;;;8.10;4.32;;;;;;;;;;5076539;28;20115;-66
2023/10/11 16:43:38;;;;;;;11.02;4.50;;;;;;;;;;5081684;28;20472;-68
2023/10/11 16:47:19;;;;;;;13.38;5.22;;;;;;;;;;5081999;28;20118;-65
2023/10/11 16:50:58;;;;;;;7.85;4.93;;;;;;;;;;5070221;28;20072;-67
2023/10/11 16:54:41;;;;;;;8.85;4.90;;;;;;;;;;5065180;28;20036;-67
2023/10/11 16:58:20;;;;;;;6.88;4.70;;;;;;;;;;5060413;28;20415;-67
2023/10/11 17:02:04;;;;;;;6.45;4.85;;;;;;;;;;5068666;28;20188;-66
2023/10/11 17:05:42;;;;;;;9.57;5.20;;;;;;;;;;5071680;28;20052;-70
2023/10/11 17:09:22;;;;;;;8.82;5.05;;;;;;;;;;5068375;28;20113;-66
2023/10/11 17:13:03;;;;;;;7.80;4.90;;;;;;;;;;5068215;28;20056;-66
2023/10/11 17:16:46;;;;;;;11.25;5.10;;;;;;;;;;5063376;28;20139;-65
2023/10/11 17:20:29;;;;;;;10.30;4.80;;;;;;;;;;5069529;28;20052;-68
2023/10/11 17:24:10;;;;;;;9.93;5.40;;;;;;;;;;5065930;28;20041;-67
2023/10/11 17:27:48;;;;;;;12.27;5.38;;;;;;;;;;5069818;28;20040;-67
2023/10/11 17:31:29;;;;;;;7.80;5.03;;;;;;;;;;5071245;28;20060;-69
2023/10/11 17:35:11;;;;;;;10.63;4.80;;;;;;;;;;5058628;28;20423;-69
2023/10/11 17:38:51;;;;;;;9.85;5.45;;;;;;;;;;5065212;28;20504;-68
2023/10/11 17:42:31;;;;;;;8.57;5.35;;;;;;;;;;5049146;28;20135;-70
2023/10/11 17:46:12;;;;;;;17.10;5.90;;;;;;;;;;5053597;28;20075;-69
2023/10/11 17:49:53;;;;;;;9.48;5.95;;;;;;;;;;5043031;28;20066;-68
2023/10/11 17:53:35;;;;;;;16.58;5.63;;;;;;;;;;5049558;28;20149;-69
2023/10/11 17:57:14;;;;;;;9.13;5.40;;;;;;;;;;5053668;28;20080;-70
2023/10/11 18:00:54;;;;;;;9.38;5.03;;;;;;;;;;5034490;28;20498;-69
2023/10/11 18:04:34;;;;;;;10.52;5.60;;;;;;;;;;5052328;28;20040;-67
2023/10/11 18:08:16;;;;;;;11.35;5.50;;;;;;;;;;5048805;28;20578;-71
2023/10/11 18:11:58;;;;;;;11.82;5.32;;;;;;;;;;5048353;28;20115;-69
2023/10/11 18:15:38;;;;;;;11.45;5.20;;;;;;;;;;5046604;28;20130;-72
2023/10/11 18:19:20;;;;;;;10.98;5.07;;;;;;;;;;5054086;28;20653;-71
2023/10/11 18:23:03;;;;;;;10.50;5.93;;;;;;;;;;5052777;28;20040;-73
2023/10/11 18:26:43;;;;;;;8.75;5.28;;;;;;;;;;5050541;28;20075;-71
2023/10/11 18:30:24;;;;;;;10.77;5.13;;;;;;;;;;5050656;28;20492;-69
2023/10/11 18:34:05;;;;;;;7.97;5.20;;;;;;;;;;5046855;28;20600;-69
2023/10/11 18:37:45;;;;;;;12.07;5.55;;;;;;;;;;5047301;28;20054;-72
2023/10/11 18:40:42;;;;;;;10.13;5.40;;;;;;;;;;5051087;28;20087;-71
2023/10/11 18:43:09;;;;;;;7.72;5.32;;;;;;;;;;5052053;28;20137;-71
2023/10/11 18:45:36;;;;;;;10.23;5.72;;;;;;;;;;5053171;28;20082;-69
2023/10/11 18:48:02;;;;;;;12.70;5.80;;;;;;;;;;5052695;28;20040;-67
2023/10/11 18:50:31;;;;;;;12.38;5.80;;;;;;;;;;5047302;28;20063;-70
2023/10/11 18:52:57;;;;;;;9.32;5.88;;;;;;;;;;5052231;28;20049;-68
2023/10/11 18:55:23;;;;;;;12.73;5.55;;;;;;;;;;5047194;28;20056;-68
2023/10/11 18:57:51;;;;;;;11.85;5.72;;;;;;;;;;5053710;28;20041;-68
2023/10/11 19:00:17;;;;;;;15.50;5.65;;;;;;;;;;5042392;28;20052;-67
2023/10/11 19:02:48;;;;;;;9.82;5.70;;;;;;;;;;5050275;28;20056;-68
2023/10/11 19:05:20;;;;;;;10.45;7.13;;;;;;;;;;5053646;28;20148;-69
2023/10/11 19:07:51;;;;;;;10.38;6.10;;;;;;;;;;5051089;28;20067;-68
2023/10/11 19:10:18;;;;;;;9.90;5.68;;;;;;;;;;5054665;28;20059;-70
2023/10/11 19:12:48;;;;;;;11.80;6.22;;;;;;;;;;5057661;28;20457;-69
2023/10/11 19:15:16;;;;;;;10.93;5.88;;;;;;;;;;5054359;28;20052;-70
2023/10/11 19:17:46;;;;;;;10.38;5.78;;;;;;;;;;5057978;28;20488;-69
2023/10/11 19:20:14;;;;;;;9.25;5.78;;;;;;;;;;5056258;28;20694;-68
2023/10/11 19:22:40;;;;;;;12.00;5.63;;;;;;;;;;5059871;28;20048;-68
2023/10/11 19:25:12;;;;;;;8.30;5.32;;;;;;;;;;5061946;28;20474;-69
2023/10/11 19:27:39;;;;;;;8.73;5.93;;;;;;;;;;5062437;28;20412;-68
2023/10/11 19:30:07;;;;;;;13.90;6.25;;;;;;;;;;5062044;28;20068;-69
2023/10/11 19:32:37;;;;;;;9.77;6.22;;;;;;;;;;5053994;28;20056;-68
2023/10/11 19:35:07;;;;;;;7.70;5.85;;;;;;;;;;5060511;28;20045;-68
2023/10/11 19:37:38;;;;;;;8.05;5.93;;;;;;;;;;5061245;28;20057;-67
2023/10/11 19:40:09;;;;;;;14.07;6.80;;;;;;;;;;5062250;28;20047;-67
2023/10/11 19:42:41;;;;;;;10.10;6.72;;;;;;;;;;5062223;28;20202;-70
2023/10/11 19:45:15;;;;;;;11.02;6.55;;;;;;;;;;5055912;28;20131;-68
2023/10/11 19:47:49;;;;;;;15.27;6.40;;;;;;;;;;5060828;28;20514;-67
2023/10/11 19:50:17;;;;;;;10.27;6.47;;;;;;;;;;5058124;28;20055;-70
2023/10/11 19:52:45;;;;;;;9.20;6.15;;;;;;;;;;5062733;28;20079;-71
2023/10/11 19:55:17;;;;;;;10.55;6.50;;;;;;;;;;5063373;28;20048;-71
2023/10/11 19:57:46;;;;;;;10.02;6.25;;;;;;;;;;5063362;28;20061;-72
2023/10/11 20:00:17;;;;;;;13.20;6.20;;;;;;;;;;5058417;28;20046;-70
2023/10/11 20:02:45;;;;;;;11.40;6.57;;;;;;;;;;5056999;28;20053;-70
2023/10/11 20:05:12;;;;;;;21.42;7.10;;;;;;;;;;5067187;28;20871;-70
2023/10/11 20:07:42;;;;;;;12.82;8.13;;;;;;;;;;5062495;28;20075;-69
2023/10/11 20:10:48;;;;;;;17.15;9.20;;;;;;;;;;5054880;28;21084;-68
2023/10/11 20:14:28;;;;;;;13.10;8.00;;;;;;;;;;5046724;28;20044;-69
2023/10/11 20:18:09;;;;;;;13.77;9.82;;;;;;;;;;5049792;28;20044;-70
2023/10/11 20:21:50;;;;;;;15.88;9.80;;;;;;;;;;5066089;28;20059;-71
2023/10/11 20:25:29;;;;;;;17.05;9.95;;;;;;;;;;5065024;28;20053;-69
2023/10/11 20:29:14;;;;;;;19.73;10.60;;;;;;;;;;5060170;28;20572;-70
2023/10/11 20:32:53;;;;;;;18.90;11.30;;;;;;;;;;5059574;28;20036;-69
2023/10/11 20:36:33;;;;;;;18.23;11.38;;;;;;;;;;5069149;28;20052;-72
2023/10/11 20:40:13;;;;;;;20.60;10.52;;;;;;;;;;5067576;28;20048;-68
2023/10/11 20:43:54;;;;;;;18.00;11.15;;;;;;;;;;5061890;28;20496;-69
2023/10/11 20:47:34;;;;;;;16.40;10.32;;;;;;;;;;5064881;28;20052;-71
2023/10/11 20:51:17;;;;;;;17.23;11.10;;;;;;;;;;5067047;28;20053;-68
2023/10/11 20:54:55;;;;;;;19.30;11.50;;;;;;;;;;5068088;28;20054;-69
2023/10/11 20:58:42;;;;;;;16.27;11.00;;;;;;;;;;5069237;28;20052;-69